Downstream station:
SHEF ID: BZRK1 SF COTTONWOOD R NR BAZAAR, KS
STATION TYPE:
PRECIP PRECIP(A) STAGE RIV-FLOW BAT-LOAD
in in ft cfs volt
Ccp-Rev Ccp-Rev Ccp-Rev Ccp-Rev Ccp-Rev
(US/Central)
09/08 00:00 0.00 ---- 7.87 125 12.77
09/08 01:00 0.00 ---- 7.83 120 12.71
09/08 02:00 0.00 ---- 7.79 115 12.71
09/08 03:00 0.00 ---- 7.77 113 12.71
09/08 04:00 0.00 ---- 7.74 109 12.65
09/08 05:00 0.00 ---- 7.72 107 12.65
09/08 06:00 0.00 ---- 7.69 103 12.65
09/08 07:00 0.00 ---- 7.67 101 12.60
09/08 08:00 0.00 ---- 7.64 98 12.65
09/08 09:00 0.00 ---- 7.61 94 13.42
09/08 10:00 0.00 ---- 7.58 91 13.77
09/08 11:00 0.00 ---- 7.56 89 13.88
09/08 12:00 0.00 ---- 7.53 86 13.77
09/08 13:00 0.00 ---- 7.52 85 13.65
09/08 14:00 0.00 ---- 7.50 83 13.65
09/08 15:00 0.00 ---- 7.48 81 13.59
09/08 16:00 0.00 ---- 7.46 79 13.59
09/08 17:00 0.00 ---- 7.44 77 13.59
09/08 18:00 0.00 ---- 7.42 75 13.65
09/08 19:00 0.00 ---- 7.41 74 13.65
09/08 20:00 0.00 ---- 7.39 72 13.12
09/08 21:00 0.00 ---- 7.39 72 12.83
09/08 22:00 0.00 ---- 7.38 71 12.71
09/08 23:00 0.00 ---- 7.37 70 12.77